Time;durP1;ratioP1;P1;durP2;ratioP2;P2;SDS_P1;SDS_P2;PMS_P1;PMS_P2;Temp;Humidity;BMP_temperature;BMP_pressure;BME280_temperature;BME280_humidity;BME280_pressure;Samples;Min_cycle;Max_cycle;Signal;HPM_P1;HPM_P2
2022/11/06 00:00:17;;;;;;;;;;;10.30;99.90;;;;;;4976756;28;19929;-68
2022/11/06 00:02:43;;;;;;;;;;;10.30;99.90;;;;;;4935566;28;208369;-69
2022/11/06 00:07:54;;;;;;;;;;;10.20;99.90;;;;;;4935349;28;207197;-68
2022/11/06 00:10:20;;;;;;;;;;;10.20;99.90;;;;;;4976572;28;19926;-68
2022/11/06 00:12:46;;;;;;;;;;;10.10;99.90;;;;;;4941779;28;184244;-67
2022/11/06 00:15:12;;;;;;;;;;;10.10;99.90;;;;;;4966604;28;19930;-68
2022/11/06 00:17:38;;;;;;;;;;;10.10;99.90;;;;;;4950187;28;153929;-67
2022/11/06 00:20:05;;;;;;;;;;;10.10;99.90;;;;;;4971461;28;19933;-69
2022/11/06 00:22:34;;;;;;;;;;;10.00;99.90;;;;;;4936986;28;206188;-68
2022/11/06 00:25:00;;;;;;;;;;;10.00;99.90;;;;;;4959985;28;19936;-69
2022/11/06 00:27:27;;;;;;;;;;;10.00;99.90;;;;;;4959300;28;143846;-69
2022/11/06 00:29:53;;;;;;;;;;;9.90;99.90;;;;;;4973817;28;19926;-69
2022/11/06 00:32:19;;;;;;;;;;;9.80;99.90;;;;;;4958148;28;140332;-69
2022/11/06 00:34:45;;;;;;;;;;;9.80;99.90;;;;;;4970696;28;20338;-69
2022/11/06 00:37:11;;;;;;;;;;;9.70;99.90;;;;;;4931493;28;232007;-69
2022/11/06 00:39:37;;;;;;;;;;;9.70;99.90;;;;;;4985604;28;19936;-70
2022/11/06 00:42:03;;;;;;;;;;;9.70;99.90;;;;;;4932839;28;213002;-70
2022/11/06 00:44:29;;;;;;;;;;;9.60;99.90;;;;;;4999421;28;19929;-69
2022/11/06 00:46:55;;;;;;;;;;;9.60;99.90;;;;;;4931046;28;209194;-68
2022/11/06 00:49:21;;;;;;;;;;;9.60;99.90;;;;;;4989438;28;19930;-69
2022/11/06 00:51:47;;;;;;;;;;;9.50;99.90;;;;;;4928031;28;208479;-69
2022/11/06 00:54:13;;;;;;;;;;;9.50;99.90;;;;;;4998489;28;20372;-68
2022/11/06 00:56:39;;;;;;;;;;;9.50;99.90;;;;;;4952110;28;129975;-68
2022/11/06 00:59:09;;;;;;;;;;;9.50;99.90;;;;;;4997864;28;19930;-69
2022/11/06 01:01:37;;;;;;;;;;;9.50;99.90;;;;;;4901481;28;213405;-68
2022/11/06 01:04:05;;;;;;;;;;;9.50;99.90;;;;;;4949177;28;19930;-70
2022/11/06 01:06:34;;;;;;;;;;;9.50;99.90;;;;;;4907159;28;215519;-68
2022/11/06 01:09:00;;;;;;;;;;;9.40;99.90;;;;;;4983312;28;19949;-68
2022/11/06 01:11:28;;;;;;;;;;;9.50;99.90;;;;;;4922507;28;212223;-69
2022/11/06 01:13:54;;;;;;;;;;;9.40;99.90;;;;;;4984559;28;19922;-68
2022/11/06 01:16:21;;;;;;;;;;;9.40;99.90;;;;;;4941688;28;216078;-67
2022/11/06 01:18:47;;;;;;;;;;;9.40;99.90;;;;;;4990948;28;19937;-69
2022/11/06 01:21:15;;;;;;;;;;;9.40;99.90;;;;;;4959613;28;207515;-67
2022/11/06 01:23:41;;;;;;;;;;;9.40;99.90;;;;;;4975718;28;207859;-69
2022/11/06 01:26:08;;;;;;;;;;;9.40;99.90;;;;;;4971831;28;19945;-69
2022/11/06 01:28:34;;;;;;;;;;;9.40;99.90;;;;;;4947562;28;212978;-69
2022/11/06 01:31:04;;;;;;;;;;;9.40;99.90;;;;;;4985809;28;19930;-68
2022/11/06 01:33:31;;;;;;;;;;;9.40;99.90;;;;;;4951843;28;212397;-69
2022/11/06 01:35:56;;;;;;;;;;;9.40;99.90;;;;;;4989613;28;19926;-68
2022/11/06 01:38:22;;;;;;;;;;;9.40;99.90;;;;;;4960226;28;252519;-68
2022/11/06 01:40:48;;;;;;;;;;;9.40;99.90;;;;;;4967952;28;19938;-70
2022/11/06 01:43:16;;;;;;;;;;;9.30;99.90;;;;;;4947992;28;215682;-71
2022/11/06 01:45:43;;;;;;;;;;;9.40;99.90;;;;;;4953401;28;20502;-69
2022/11/06 01:48:09;;;;;;;;;;;9.30;99.90;;;;;;4953266;28;207948;-69
2022/11/06 01:50:36;;;;;;;;;;;9.30;99.90;;;;;;4975069;28;19922;-69
2022/11/06 01:53:02;;;;;;;;;;;9.30;99.90;;;;;;4932061;28;207377;-69
2022/11/06 01:55:31;;;;;;;;;;;9.30;99.90;;;;;;4956182;28;20418;-68
2022/11/06 01:57:59;;;;;;;;;;;9.30;99.90;;;;;;4956479;28;208168;-69
2022/11/06 02:00:26;;;;;;;;;;;9.30;99.90;;;;;;4961887;28;19922;-69
2022/11/06 02:02:52;;;;;;;;;;;9.30;99.90;;;;;;4936236;28;216249;-69
2022/11/06 02:05:18;;;;;;;;;;;9.30;99.90;;;;;;4978850;28;20399;-69
2022/11/06 02:07:44;;;;;;;;;;;9.30;99.90;;;;;;4951394;28;134591;-69
2022/11/06 02:10:10;;;;;;;;;;;9.30;99.90;;;;;;4981095;28;20455;-69
2022/11/06 02:12:39;;;;;;;;;;;9.30;99.90;;;;;;4938900;28;211027;-69
2022/11/06 02:15:11;;;;;;;;;;;9.30;99.90;;;;;;4966944;28;20264;-70
2022/11/06 02:17:37;;;;;;;;;;;9.30;99.90;;;;;;4945986;28;216614;-68
2022/11/06 02:20:22;;;;;;;;;;;9.30;99.90;;;;;;4980977;28;19930;-70
2022/11/06 02:23:07;;;;;;;;;;;9.20;99.90;;;;;;4971395;28;207905;-70
2022/11/06 02:25:52;;;;;;;;;;;9.20;99.90;;;;;;5000840;28;19932;-69
2022/11/06 02:28:21;;;;;;;;;;;9.20;99.90;;;;;;4946384;28;213149;-69
2022/11/06 02:30:48;;;;;;;;;;;9.20;99.90;;;;;;4961019;28;21013;-70
2022/11/06 02:33:16;;;;;;;;;;;9.20;99.90;;;;;;4943223;28;222860;-69
2022/11/06 02:35:46;;;;;;;;;;;9.20;99.90;;;;;;4975919;28;19929;-69
2022/11/06 02:38:15;;;;;;;;;;;9.10;99.90;;;;;;4963185;28;199831;-70
2022/11/06 02:40:47;;;;;;;;;;;9.20;99.90;;;;;;4967442;28;19926;-69
2022/11/06 02:43:14;;;;;;;;;;;9.10;99.90;;;;;;4928753;28;206872;-69
2022/11/06 02:45:46;;;;;;;;;;;9.20;99.90;;;;;;4972164;28;19926;-70
2022/11/06 02:48:14;;;;;;;;;;;9.10;99.90;;;;;;4929672;28;214214;-70
2022/11/06 02:50:43;;;;;;;;;;;9.10;99.90;;;;;;4947249;28;19931;-71
2022/11/06 02:53:11;;;;;;;;;;;9.10;99.90;;;;;;4949323;28;206157;-70
2022/11/06 02:55:39;;;;;;;;;;;9.10;99.90;;;;;;4978126;28;19926;-69
2022/11/06 02:58:08;;;;;;;;;;;9.10;99.90;;;;;;4962571;28;209889;-71
2022/11/06 03:00:34;;;;;;;;;;;9.00;99.90;;;;;;4971310;28;19926;-70
2022/11/06 03:03:04;;;;;;;;;;;9.10;99.90;;;;;;4910323;28;224125;-70
2022/11/06 03:05:50;;;;;;;;;;;9.10;99.90;;;;;;4954982;28;19930;-71
2022/11/06 03:08:19;;;;;;;;;;;9.10;99.90;;;;;;4944512;28;205817;-70
2022/11/06 03:10:54;;;;;;;;;;;9.10;99.90;;;;;;4968283;28;19932;-70
2022/11/06 03:13:23;;;;;;;;;;;9.00;99.90;;;;;;4950412;28;197532;-71
2022/11/06 03:16:03;;;;;;;;;;;9.00;99.90;;;;;;4978884;28;19941;-70
2022/11/06 03:18:33;;;;;;;;;;;9.00;99.90;;;;;;4932058;28;197430;-70
2022/11/06 03:21:01;;;;;;;;;;;9.00;99.90;;;;;;4999136;28;19926;-69
2022/11/06 03:23:33;;;;;;;;;;;9.00;99.90;;;;;;4966524;28;156416;-70
2022/11/06 03:26:08;;;;;;;;;;;9.00;99.90;;;;;;4980306;28;19930;-70
2022/11/06 03:28:39;;;;;;;;;;;9.00;99.90;;;;;;4972111;28;139904;-69
2022/11/06 03:31:07;;;;;;;;;;;9.00;99.90;;;;;;4999611;28;20318;-68
2022/11/06 03:33:36;;;;;;;;;;;9.00;99.90;;;;;;4959473;28;105626;-68
2022/11/06 03:36:09;;;;;;;;;;;9.00;99.90;;;;;;5004801;28;19942;-70
2022/11/06 03:38:40;;;;;;;;;;;9.00;99.90;;;;;;4954872;28;210200;-71
2022/11/06 03:41:32;;;;;;;;;;;9.00;99.90;;;;;;4976198;28;19930;-69
2022/11/06 03:44:00;;;;;;;;;;;9.00;99.90;;;;;;4896519;28;206806;-69
2022/11/06 03:46:27;;;;;;;;;;;9.00;99.90;;;;;;4888580;28;125761;-69
2022/11/06 03:49:01;;;;;;;;;;;9.00;99.90;;;;;;4942783;28;19930;-69
2022/11/06 03:51:28;;;;;;;;;;;9.00;99.90;;;;;;4883584;29;126119;-69
2022/11/06 03:53:59;;;;;;;;;;;9.00;99.90;;;;;;4913247;29;20285;-69
2022/11/06 03:56:32;;;;;;;;;;;9.00;99.90;;;;;;4883220;28;152777;-69
2022/11/06 03:59:00;;;;;;;;;;;9.00;99.90;;;;;;4944270;28;19930;-69
2022/11/06 04:01:30;;;;;;;;;;;9.00;99.90;;;;;;4873496;28;207375;-70
2022/11/06 04:03:58;;;;;;;;;;;9.00;99.90;;;;;;4925408;29;19938;-69
2022/11/06 04:06:27;;;;;;;;;;;9.00;99.90;;;;;;4886551;28;213253;-69
2022/11/06 04:14:25;;;;;;;;;;;9.10;99.90;;;;;;4934088;28;19945;-69
2022/11/06 04:16:53;;;;;;;;;;;9.00;99.90;;;;;;4901123;28;155650;-69
2022/11/06 04:19:20;;;;;;;;;;;9.00;99.90;;;;;;4950108;28;19923;-68
2022/11/06 04:21:49;;;;;;;;;;;9.00;99.90;;;;;;4918966;28;207046;-69
2022/11/06 04:27:00;;;;;;;;;;;9.00;99.90;;;;;;4911841;28;255654;-69
2022/11/06 04:29:48;;;;;;;;;;;9.00;99.90;;;;;;4979411;28;19930;-69
2022/11/06 04:32:17;;;;;;;;;;;9.00;99.90;;;;;;4950571;28;213125;-69
2022/11/06 04:34:43;;;;;;;;;;;9.00;99.90;;;;;;4982892;28;19932;-69
2022/11/06 04:37:19;;;;;;;;;;;9.00;99.90;;;;;;4940910;28;214429;-69
2022/11/06 04:39:53;;;;;;;;;;;9.00;99.90;;;;;;4994977;28;19926;-68
2022/11/06 04:42:25;;;;;;;;;;;9.00;99.90;;;;;;4940994;28;206160;-69
2022/11/06 04:44:54;;;;;;;;;;;9.00;99.90;;;;;;4988171;28;19937;-69
2022/11/06 04:47:21;;;;;;;;;;;9.00;99.90;;;;;;4939439;28;207094;-69
2022/11/06 04:49:48;;;;;;;;;;;9.00;99.90;;;;;;4972978;28;19929;-69
2022/11/06 04:52:16;;;;;;;;;;;9.00;99.90;;;;;;4937886;28;212623;-69
2022/11/06 04:54:43;;;;;;;;;;;9.10;99.90;;;;;;4994075;28;19922;-69
2022/11/06 04:57:09;;;;;;;;;;;9.00;99.90;;;;;;4932158;28;207673;-69
2022/11/06 04:59:35;;;;;;;;;;;9.10;99.90;;;;;;4989095;28;20382;-69
2022/11/06 05:02:02;;;;;;;;;;;9.10;99.90;;;;;;4931127;28;144045;-69
2022/11/06 05:04:28;;;;;;;;;;;9.10;99.90;;;;;;4979818;28;19926;-69
2022/11/06 05:06:54;;;;;;;;;;;9.10;99.90;;;;;;4947277;28;145116;-69
2022/11/06 05:09:20;;;;;;;;;;;9.10;99.90;;;;;;4991273;28;19921;-69
2022/11/06 05:11:46;;;;;;;;;;;9.10;99.90;;;;;;4924850;28;213205;-69
2022/11/06 05:14:12;;;;;;;;;;;9.10;99.90;;;;;;5008149;28;19930;-69
2022/11/06 05:16:37;;;;;;;;;;;9.10;99.90;;;;;;4922747;28;212678;-70
2022/11/06 05:19:04;;;;;;;;;;;9.10;99.90;;;;;;4992178;28;20295;-69
2022/11/06 05:24:14;;;;;;;;;;;9.10;99.90;;;;;;4953906;28;20402;-69
2022/11/06 05:26:40;;;;;;;;;;;9.10;99.90;;;;;;4900701;28;207442;-70
2022/11/06 05:29:06;;;;;;;;;;;9.10;99.90;;;;;;4954857;28;19926;-69
2022/11/06 05:31:32;;;;;;;;;;;9.10;99.90;;;;;;4916333;28;206619;-69
2022/11/06 05:33:59;;;;;;;;;;;9.10;99.90;;;;;;4996716;28;19926;-69
2022/11/06 05:36:25;;;;;;;;;;;9.10;99.90;;;;;;4949130;28;212383;-70
2022/11/06 05:38:51;;;;;;;;;;;9.10;99.90;;;;;;4997217;28;19926;-70
2022/11/06 05:41:17;;;;;;;;;;;9.10;99.90;;;;;;4970340;28;218959;-69
2022/11/06 05:43:43;;;;;;;;;;;9.20;99.90;;;;;;4965372;28;267200;-69
2022/11/06 05:46:09;;;;;;;;;;;9.10;99.90;;;;;;4976597;28;19922;-69
2022/11/06 05:48:35;;;;;;;;;;;9.10;99.90;;;;;;4931007;28;209423;-70
2022/11/06 05:51:03;;;;;;;;;;;9.10;99.90;;;;;;4951217;28;20064;-70
2022/11/06 05:53:29;;;;;;;;;;;9.10;99.90;;;;;;4938532;28;221117;-70
2022/11/06 05:55:55;;;;;;;;;;;9.10;99.90;;;;;;4972610;28;19922;-70
2022/11/06 05:58:21;;;;;;;;;;;9.10;99.90;;;;;;4951787;28;155578;-69
2022/11/06 06:00:47;;;;;;;;;;;9.10;99.90;;;;;;4974213;28;19934;-69
2022/11/06 06:03:13;;;;;;;;;;;9.10;99.90;;;;;;4943542;28;130589;-70
2022/11/06 06:05:39;;;;;;;;;;;9.10;99.90;;;;;;4971497;28;19929;-70
2022/11/06 06:08:05;;;;;;;;;;;9.10;99.90;;;;;;4974402;28;177151;-70
2022/11/06 06:10:32;;;;;;;;;;;9.10;99.90;;;;;;5002326;28;19922;-70
2022/11/06 06:12:57;;;;;;;;;;;9.10;99.90;;;;;;4966887;28;165791;-70
2022/11/06 06:15:23;;;;;;;;;;;9.10;99.90;;;;;;4996102;28;19921;-70
2022/11/06 06:17:49;;;;;;;;;;;9.10;99.90;;;;;;4934082;28;251072;-70
2022/11/06 06:20:15;;;;;;;;;;;9.10;99.90;;;;;;4987319;28;19958;-70
2022/11/06 06:22:41;;;;;;;;;;;9.10;99.90;;;;;;4950475;28;213768;-70
2022/11/06 06:25:07;;;;;;;;;;;9.10;99.90;;;;;;4986396;28;19930;-71
2022/11/06 06:27:33;;;;;;;;;;;9.10;99.90;;;;;;4926056;28;212531;-70
2022/11/06 06:29:59;;;;;;;;;;;9.10;99.90;;;;;;4972445;28;20029;-69
2022/11/06 06:32:25;;;;;;;;;;;9.10;99.90;;;;;;4947818;28;195306;-70
2022/11/06 06:34:51;;;;;;;;;;;9.20;99.90;;;;;;4965258;28;19932;-70
2022/11/06 06:37:17;;;;;;;;;;;9.20;99.90;;;;;;4945442;28;147526;-69
2022/11/06 06:39:43;;;;;;;;;;;9.20;99.90;;;;;;4981806;28;19968;-70
2022/11/06 06:42:08;;;;;;;;;;;9.20;99.90;;;;;;4920689;28;208149;-70
2022/11/06 06:44:34;;;;;;;;;;;9.20;99.90;;;;;;4971410;28;19937;-69
2022/11/06 06:47:00;;;;;;;;;;;9.30;99.90;;;;;;4923489;28;218276;-70
2022/11/06 06:49:26;;;;;;;;;;;9.30;99.90;;;;;;4972294;28;20469;-70
2022/11/06 06:51:52;;;;;;;;;;;9.30;99.90;;;;;;4948989;28;207566;-70
2022/11/06 06:54:18;;;;;;;;;;;9.30;99.90;;;;;;4984668;28;20337;-69
2022/11/06 06:56:46;;;;;;;;;;;9.30;99.90;;;;;;4954315;28;204690;-70
2022/11/06 06:59:12;;;;;;;;;;;9.30;99.90;;;;;;5006013;28;19930;-70
2022/11/06 07:01:38;;;;;;;;;;;9.40;99.90;;;;;;4927196;28;245561;-70
2022/11/06 07:04:05;;;;;;;;;;;9.40;99.90;;;;;;5024079;28;20379;-70
2022/11/06 07:06:30;;;;;;;;;;;9.40;99.90;;;;;;4930027;28;213909;-70
2022/11/06 07:08:56;;;;;;;;;;;9.40;99.90;;;;;;4981422;28;21405;-70
2022/11/06 07:11:22;;;;;;;;;;;9.50;99.90;;;;;;4931765;28;204879;-70
2022/11/06 07:13:48;;;;;;;;;;;9.50;99.90;;;;;;4998181;28;20295;-70
2022/11/06 07:16:14;;;;;;;;;;;9.50;99.90;;;;;;4950734;28;210631;-70
2022/11/06 07:18:40;;;;;;;;;;;9.60;99.90;;;;;;4978572;28;128217;-70
2022/11/06 07:21:07;;;;;;;;;;;9.60;99.90;;;;;;4983165;28;20301;-70
2022/11/06 07:23:34;;;;;;;;;;;9.70;99.90;;;;;;4955087;28;239807;-70
2022/11/06 07:26:00;;;;;;;;;;;9.70;99.90;;;;;;4980735;28;19933;-70
2022/11/06 07:28:26;;;;;;;;;;;9.70;99.90;;;;;;4964678;28;209640;-70
2022/11/06 07:30:56;;;;;;;;;;;9.80;99.90;;;;;;4983778;28;19926;-70
2022/11/06 07:33:22;;;;;;;;;;;9.80;99.90;;;;;;4974493;28;133321;-70
2022/11/06 07:35:48;;;;;;;;;;;9.80;99.90;;;;;;4970601;28;19936;-70
2022/11/06 07:38:13;;;;;;;;;;;9.80;99.90;;;;;;4957504;28;142448;-70
2022/11/06 07:40:39;;;;;;;;;;;9.90;99.90;;;;;;4971993;28;19984;-70
2022/11/06 07:43:06;;;;;;;;;;;9.90;99.90;;;;;;4969725;28;192677;-71
2022/11/06 07:45:33;;;;;;;;;;;9.90;99.90;;;;;;4977958;28;19922;-69
2022/11/06 07:47:59;;;;;;;;;;;9.90;99.90;;;;;;4951643;28;202267;-70
2022/11/06 07:50:26;;;;;;;;;;;9.80;99.90;;;;;;4970998;28;19922;-69
2022/11/06 07:52:52;;;;;;;;;;;9.90;99.90;;;;;;4954129;28;206850;-69
2022/11/06 07:55:18;;;;;;;;;;;9.80;99.90;;;;;;4975139;28;19936;-70
2022/11/06 07:57:44;;;;;;;;;;;9.80;99.90;;;;;;4936783;28;243294;-69
2022/11/06 08:00:10;;;;;;;;;;;9.80;99.90;;;;;;4959910;28;19988;-69
2022/11/06 08:02:36;;;;;;;;;;;9.80;99.90;;;;;;4928128;28;140781;-69
2022/11/06 08:05:02;;;;;;;;;;;9.80;99.90;;;;;;4999528;28;19937;-69
2022/11/06 08:07:28;;;;;;;;;;;9.80;99.90;;;;;;4936444;28;212287;-70
2022/11/06 08:09:54;;;;;;;;;;;9.80;99.90;;;;;;4964514;28;19981;-71
2022/11/06 08:12:20;;;;;;;;;;;9.80;99.90;;;;;;4920153;28;210271;-69
2022/11/06 08:14:46;;;;;;;;;;;9.90;99.90;;;;;;4969599;28;19926;-69
2022/11/06 08:17:12;;;;;;;;;;;9.80;99.90;;;;;;4923004;28;210328;-69
2022/11/06 08:19:38;;;;;;;;;;;9.90;99.90;;;;;;4994821;28;19937;-69
2022/11/06 08:22:04;;;;;;;;;;;9.90;99.90;;;;;;4929755;28;213815;-69
2022/11/06 08:24:30;;;;;;;;;;;9.90;99.90;;;;;;4985260;28;19934;-68
2022/11/06 08:26:56;;;;;;;;;;;9.90;99.90;;;;;;4931326;28;235701;-69
2022/11/06 08:29:22;;;;;;;;;;;9.90;99.90;;;;;;4997184;28;19941;-69
2022/11/06 08:31:48;;;;;;;;;;;9.90;99.90;;;;;;4938953;28;205213;-68
2022/11/06 08:34:14;;;;;;;;;;;9.90;99.90;;;;;;4975416;28;19926;-70
2022/11/06 08:36:44;;;;;;;;;;;9.90;99.90;;;;;;4925832;28;214680;-69
2022/11/06 08:39:11;;;;;;;;;;;9.90;99.90;;;;;;4975270;28;19933;-70
2022/11/06 08:41:37;;;;;;;;;;;9.90;99.90;;;;;;4921940;28;225122;-72
2022/11/06 08:44:03;;;;;;;;;;;10.00;99.90;;;;;;5005696;28;19945;-70
2022/11/06 08:46:29;;;;;;;;;;;10.00;99.90;;;;;;4918685;28;207599;-70
2022/11/06 08:48:55;;;;;;;;;;;10.00;99.90;;;;;;4992811;28;19929;-71
2022/11/06 08:51:21;;;;;;;;;;;10.00;99.90;;;;;;4946277;28;207279;-70
2022/11/06 08:53:47;;;;;;;;;;;10.00;99.90;;;;;;4971788;28;19926;-70
2022/11/06 08:56:13;;;;;;;;;;;10.10;99.90;;;;;;4975751;28;208574;-70
2022/11/06 08:58:39;;;;;;;;;;;10.10;99.90;;;;;;4977501;28;216773;-70
2022/11/06 09:01:05;;;;;;;;;;;10.10;99.90;;;;;;4973855;28;19942;-72
2022/11/06 09:03:31;;;;;;;;;;;10.10;99.90;;;;;;4920663;28;206543;-71
2022/11/06 09:05:57;;;;;;;;;;;10.20;99.90;;;;;;4999751;28;19922;-70
2022/11/06 09:08:23;;;;;;;;;;;10.30;99.90;;;;;;4920394;28;176244;-71
2022/11/06 09:10:49;;;;;;;;;;;10.30;99.90;;;;;;4945700;28;19926;-71
2022/11/06 09:13:15;;;;;;;;;;;10.40;99.90;;;;;;4954822;28;211882;-72
2022/11/06 09:15:41;;;;;;;;;;;10.40;99.90;;;;;;4972392;28;19997;-71
2022/11/06 09:18:07;;;;;;;;;;;10.50;99.90;;;;;;4956495;28;207350;-72
2022/11/06 09:20:34;;;;;;;;;;;10.50;99.90;;;;;;4974616;28;19957;-71
2022/11/06 09:23:01;;;;;;;;;;;10.60;99.90;;;;;;4941971;28;209397;-71
2022/11/06 09:25:28;;;;;;;;;;;10.60;99.90;;;;;;4973364;28;19926;-71
2022/11/06 09:27:54;;;;;;;;;;;10.70;99.90;;;;;;4942769;28;209758;-72
2022/11/06 09:30:22;;;;;;;;;;;10.90;99.90;;;;;;4966702;28;19922;-71
2022/11/06 09:32:52;;;;;;;;;;;11.00;99.90;;;;;;4960122;28;213392;-72
2022/11/06 09:35:19;;;;;;;;;;;11.20;99.90;;;;;;4977428;28;20161;-72
2022/11/06 09:37:45;;;;;;;;;;;11.40;99.90;;;;;;4921502;28;212969;-71
2022/11/06 09:40:29;;;;;;;;;;;11.50;99.90;;;;;;4956116;28;19926;-71
2022/11/06 09:43:04;;;;;;;;;;;11.60;99.90;;;;;;4959091;28;148305;-71
2022/11/06 09:45:31;;;;;;;;;;;11.70;99.90;;;;;;4974615;28;19937;-71
2022/11/06 09:48:10;;;;;;;;;;;11.90;99.90;;;;;;4945629;28;208162;-71
2022/11/06 09:50:50;;;;;;;;;;;11.90;99.90;;;;;;4988079;28;19929;-72
2022/11/06 09:53:19;;;;;;;;;;;11.90;99.90;;;;;;4972344;28;185910;-71
2022/11/06 09:55:45;;;;;;;;;;;11.90;99.90;;;;;;4976831;28;20009;-71
2022/11/06 09:58:17;;;;;;;;;;;11.80;99.90;;;;;;4969210;28;209656;-72
2022/11/06 10:00:46;;;;;;;;;;;11.80;99.90;;;;;;4952452;28;19941;-71
2022/11/06 10:03:18;;;;;;;;;;;11.70;99.90;;;;;;4926176;28;198652;-71
2022/11/06 10:05:45;;;;;;;;;;;11.70;99.90;;;;;;4955318;28;19934;-71
2022/11/06 10:08:14;;;;;;;;;;;11.80;99.90;;;;;;4961383;28;199342;-72
2022/11/06 10:10:45;;;;;;;;;;;11.80;99.90;;;;;;4975266;28;19929;-71
2022/11/06 10:13:11;;;;;;;;;;;11.80;99.90;;;;;;4975707;28;138732;-72
2022/11/06 10:15:43;;;;;;;;;;;11.80;99.90;;;;;;4980704;28;19925;-71
2022/11/06 10:18:21;;;;;;;;;;;11.90;99.90;;;;;;4938070;28;222006;-71
2022/11/06 10:20:52;;;;;;;;;;;11.80;99.90;;;;;;4951487;28;20484;-72
2022/11/06 10:23:32;;;;;;;;;;;11.90;99.90;;;;;;4942529;28;235068;-72
2022/11/06 10:26:18;;;;;;;;;;;11.90;99.90;;;;;;4972061;28;19930;-72
2022/11/06 10:29:03;;;;;;;;;;;11.90;99.90;;;;;;4916841;28;272077;-71
2022/11/06 10:31:29;;;;;;;;;;;12.00;99.90;;;;;;4919694;28;210890;-72
2022/11/06 10:34:01;;;;;;;;;;;12.00;99.90;;;;;;4991778;28;19923;-71
2022/11/06 10:36:30;;;;;;;;;;;11.90;99.90;;;;;;4946362;28;212742;-71
2022/11/06 10:38:57;;;;;;;;;;;11.90;99.90;;;;;;4974965;28;19922;-72
2022/11/06 10:41:25;;;;;;;;;;;11.90;99.90;;;;;;4907306;28;210095;-72
2022/11/06 10:43:53;;;;;;;;;;;11.80;99.90;;;;;;4978417;28;19933;-71
2022/11/06 10:46:19;;;;;;;;;;;11.80;99.90;;;;;;4950947;28;210036;-71
2022/11/06 10:48:48;;;;;;;;;;;11.70;99.90;;;;;;4940181;28;19929;-71
2022/11/06 10:51:19;;;;;;;;;;;11.60;99.90;;;;;;4948781;28;249482;-70
2022/11/06 10:53:45;;;;;;;;;;;11.60;99.90;;;;;;4968940;28;206683;-71
2022/11/06 10:56:17;;;;;;;;;;;11.50;99.90;;;;;;4990388;28;20513;-71
2022/11/06 10:58:43;;;;;;;;;;;11.40;99.90;;;;;;4905630;28;225952;-71
2022/11/06 11:01:12;;;;;;;;;;;11.40;99.90;;;;;;4962300;28;19933;-70
2022/11/06 11:03:40;;;;;;;;;;;11.30;99.90;;;;;;4955050;28;104322;-71
2022/11/06 11:06:06;;;;;;;;;;;11.30;99.90;;;;;;4967963;28;19930;-70
2022/11/06 11:08:38;;;;;;;;;;;11.40;99.90;;;;;;4948002;28;207820;-70
2022/11/06 11:11:14;;;;;;;;;;;11.40;99.90;;;;;;4968209;28;19926;-71
2022/11/06 11:13:40;;;;;;;;;;;11.30;99.90;;;;;;4963130;28;209507;-70
2022/11/06 11:16:17;;;;;;;;;;;11.40;99.90;;;;;;4967450;28;19926;-70
2022/11/06 11:18:44;;;;;;;;;;;11.40;99.90;;;;;;4969935;28;177927;-70
2022/11/06 11:21:22;;;;;;;;;;;11.40;99.90;;;;;;4968811;28;19926;-70
2022/11/06 11:24:10;;;;;;;;;;;11.30;99.90;;;;;;4935984;28;207545;-70
2022/11/06 11:26:42;;;;;;;;;;;11.40;99.90;;;;;;4924071;28;218794;-70
2022/11/06 11:29:16;;;;;;;;;;;11.40;99.90;;;;;;5004135;28;19926;-69
2022/11/06 11:31:49;;;;;;;;;;;11.40;99.90;;;;;;4957506;28;207861;-69
2022/11/06 11:34:17;;;;;;;;;;;11.40;99.90;;;;;;4994270;28;20421;-70
2022/11/06 11:36:47;;;;;;;;;;;11.40;99.90;;;;;;4932236;28;207807;-70
2022/11/06 11:39:14;;;;;;;;;;;11.40;99.90;;;;;;5014002;28;20531;-71
2022/11/06 11:41:40;;;;;;;;;;;11.40;99.90;;;;;;4929754;28;216776;-70
2022/11/06 11:44:13;;;;;;;;;;;11.30;99.90;;;;;;5015298;28;19934;-69
2022/11/06 11:46:53;;;;;;;;;;;11.40;99.90;;;;;;4957008;28;130433;-70
2022/11/06 11:49:32;;;;;;;;;;;11.30;99.90;;;;;;5005656;28;19930;-69
2022/11/06 11:52:00;;;;;;;;;;;11.30;99.90;;;;;;4949551;28;234107;-70
2022/11/06 11:54:29;;;;;;;;;;;11.30;99.90;;;;;;5002372;28;19926;-70
2022/11/06 11:56:56;;;;;;;;;;;11.20;99.90;;;;;;4961599;28;220273;-70
2022/11/06 11:59:27;;;;;;;;;;;11.40;99.90;;;;;;4984391;28;19922;-71
2022/11/06 12:01:54;;;;;;;;;;;11.40;99.90;;;;;;4944643;28;227470;-71
2022/11/06 12:04:29;;;;;;;;;;;11.40;99.90;;;;;;5012982;28;19933;-71
2022/11/06 12:06:59;;;;;;;;;;;11.50;99.90;;;;;;4942599;28;206769;-71
2022/11/06 12:09:25;;;;;;;;;;;11.60;99.90;;;;;;5010212;28;19930;-69
2022/11/06 12:11:52;;;;;;;;;;;11.70;99.90;;;;;;4964929;28;93509;-70
2022/11/06 12:14:18;;;;;;;;;;;11.80;99.90;;;;;;4986989;28;20310;-70
2022/11/06 12:16:48;;;;;;;;;;;11.90;99.90;;;;;;4951098;28;180649;-70
2022/11/06 12:19:14;;;;;;;;;;;12.00;99.90;;;;;;4994768;28;20400;-70
2022/11/06 12:21:43;;;;;;;;;;;12.00;99.90;;;;;;4947833;28;197708;-71
2022/11/06 12:24:13;;;;;;;;;;;12.10;99.90;;;;;;4993818;28;19946;-71
2022/11/06 12:26:48;;;;;;;;;;;12.30;99.90;;;;;;4917247;28;217365;-71
2022/11/06 12:29:16;;;;;;;;;;;12.50;99.90;;;;;;4974981;28;20299;-72
2022/11/06 12:31:45;;;;;;;;;;;12.30;99.90;;;;;;4955803;28;164463;-71
2022/11/06 12:34:15;;;;;;;;;;;12.30;99.90;;;;;;4992184;28;19933;-72
2022/11/06 12:36:44;;;;;;;;;;;12.40;99.90;;;;;;4931077;28;126282;-72
2022/11/06 12:39:20;;;;;;;;;;;12.40;99.90;;;;;;5002274;28;20391;-70
2022/11/06 12:41:47;;;;;;;;;;;12.40;99.90;;;;;;4936800;28;171624;-71
2022/11/06 12:44:14;;;;;;;;;;;12.50;99.90;;;;;;4986081;28;19930;-71
2022/11/06 12:47:00;;;;;;;;;;;12.50;99.90;;;;;;4926466;28;211045;-70
2022/11/06 12:49:46;;;;;;;;;;;12.50;99.90;;;;;;4986256;28;19929;-70
2022/11/06 12:52:12;;;;;;;;;;;12.50;99.90;;;;;;4950133;28;206903;-72
2022/11/06 12:54:44;;;;;;;;;;;12.40;99.90;;;;;;4982649;28;20827;-70
2022/11/06 12:57:19;;;;;;;;;;;12.30;99.90;;;;;;4937169;28;219275;-71
2022/11/06 13:00:05;;;;;;;;;;;12.30;99.90;;;;;;4982833;28;19926;-70
2022/11/06 13:02:37;;;;;;;;;;;12.30;99.90;;;;;;4951861;28;129579;-70
2022/11/06 13:05:07;;;;;;;;;;;12.30;99.90;;;;;;4968353;28;19937;-70
2022/11/06 13:07:43;;;;;;;;;;;12.20;99.90;;;;;;4913377;28;114834;-70
2022/11/06 13:10:20;;;;;;;;;;;12.20;99.90;;;;;;4957071;28;19941;-71
2022/11/06 13:12:52;;;;;;;;;;;12.20;99.90;;;;;;4946974;28;209846;-71
2022/11/06 13:15:24;;;;;;;;;;;12.20;99.90;;;;;;4975087;28;19941;-70
2022/11/06 13:18:05;;;;;;;;;;;12.10;99.90;;;;;;4963228;28;166044;-70
2022/11/06 13:20:52;;;;;;;;;;;12.10;99.90;;;;;;4972207;28;19922;-70
2022/11/06 13:23:23;;;;;;;;;;;12.10;99.90;;;;;;4898587;28;139700;-71
2022/11/06 13:25:54;;;;;;;;;;;12.10;99.90;;;;;;4958403;28;19934;-71
2022/11/06 13:28:54;;;;;;;;;;;12.10;99.90;;;;;;4907212;28;207742;-73
2022/11/06 13:31:21;;;;;;;;;;;12.10;99.90;;;;;;4911123;28;210727;-71
2022/11/06 13:33:55;;;;;;;;;;;12.10;99.90;;;;;;4951332;28;19930;-71
2022/11/06 13:36:22;;;;;;;;;;;12.10;99.90;;;;;;4936507;28;116782;-72
2022/11/06 13:38:57;;;;;;;;;;;12.10;99.90;;;;;;4951991;28;20051;-72
2022/11/06 13:41:26;;;;;;;;;;;12.10;99.90;;;;;;4935102;28;200423;-72
2022/11/06 13:43:52;;;;;;;;;;;12.10;99.90;;;;;;4965664;28;19922;-72
2022/11/06 13:46:36;;;;;;;;;;;12.10;99.90;;;;;;4950408;28;30726;-72
2022/11/06 13:49:12;;;;;;;;;;;12.00;99.90;;;;;;4935987;28;19933;-73
2022/11/06 13:51:44;;;;;;;;;;;12.10;99.90;;;;;;4930629;28;207441;-72
2022/11/06 13:54:15;;;;;;;;;;;12.00;99.90;;;;;;4972469;28;20634;-72
2022/11/06 13:56:50;;;;;;;;;;;12.00;99.90;;;;;;4901857;28;206443;-72
2022/11/06 13:59:25;;;;;;;;;;;12.00;99.90;;;;;;4973746;28;19922;-72
2022/11/06 14:02:14;;;;;;;;;;;12.00;99.90;;;;;;4917698;28;179446;-72
2022/11/06 14:04:40;;;;;;;;;;;12.00;99.90;;;;;;4922524;28;20743;-72
2022/11/06 14:07:06;;;;;;;;;;;11.90;99.90;;;;;;4860956;29;185464;-72
2022/11/06 14:09:34;;;;;;;;;;;11.90;99.90;;;;;;4883909;29;20464;-74
2022/11/06 14:12:02;;;;;;;;;;;11.90;99.90;;;;;;4853583;29;172138;-73
2022/11/06 14:14:29;;;;;;;;;;;11.90;99.90;;;;;;4891639;29;19930;-72
2022/11/06 14:17:14;;;;;;;;;;;11.90;99.90;;;;;;4853306;29;154440;-71
2022/11/06 14:19:58;;;;;;;;;;;11.90;99.90;;;;;;4902658;29;20320;-69
2022/11/06 14:22:26;;;;;;;;;;;11.80;99.90;;;;;;4852952;29;206788;-69
2022/11/06 14:24:52;;;;;;;;;;;11.80;99.90;;;;;;4897027;29;19928;-71
2022/11/06 14:27:21;;;;;;;;;;;11.80;99.90;;;;;;4857696;29;213110;-71
2022/11/06 14:29:58;;;;;;;;;;;11.80;99.90;;;;;;4894657;29;19924;-69
2022/11/06 14:32:24;;;;;;;;;;;11.80;99.90;;;;;;4858608;29;166003;-70
2022/11/06 14:34:50;;;;;;;;;;;11.70;99.90;;;;;;4877707;29;19979;-70
2022/11/06 14:37:16;;;;;;;;;;;11.70;99.90;;;;;;4867299;28;147831;-70
2022/11/06 14:39:51;;;;;;;;;;;11.60;99.90;;;;;;4886277;29;19924;-71
2022/11/06 14:42:23;;;;;;;;;;;11.60;99.90;;;;;;4931706;28;143892;-70